sensor_id;sensor_type;location;lat;lon;timestamp;P1;durP1;ratioP1;P2;durP2;ratioP2
11139;SDS011;5624;49.388;11.350;2024-01-30T00:01:38;9.20;;;6.63;;
11139;SDS011;5624;49.388;11.350;2024-01-30T00:04:03;9.50;;;6.10;;
11139;SDS011;5624;49.388;11.350;2024-01-30T00:06:29;8.43;;;6.97;;
11139;SDS011;5624;49.388;11.350;2024-01-30T00:08:54;9.73;;;5.57;;
11139;SDS011;5624;49.388;11.350;2024-01-30T00:11:20;6.03;;;4.73;;
11139;SDS011;5624;49.388;11.350;2024-01-30T00:13:46;8.70;;;5.60;;
11139;SDS011;5624;49.388;11.350;2024-01-30T00:16:21;7.47;;;5.37;;
11139;SDS011;5624;49.388;11.350;2024-01-30T00:18:50;6.30;;;5.10;;
11139;SDS011;5624;49.388;11.350;2024-01-30T00:21:16;7.80;;;5.63;;
11139;SDS011;5624;49.388;11.350;2024-01-30T00:23:42;7.20;;;5.13;;
11139;SDS011;5624;49.388;11.350;2024-01-30T00:26:08;6.67;;;4.70;;
11139;SDS011;5624;49.388;11.350;2024-01-30T00:28:33;7.30;;;4.57;;
11139;SDS011;5624;49.388;11.350;2024-01-30T00:30:59;6.07;;;4.63;;
11139;SDS011;5624;49.388;11.350;2024-01-30T00:33:24;5.10;;;4.03;;
11139;SDS011;5624;49.388;11.350;2024-01-30T00:35:50;7.30;;;5.00;;
11139;SDS011;5624;49.388;11.350;2024-01-30T00:38:16;5.53;;;3.93;;
11139;SDS011;5624;49.388;11.350;2024-01-30T00:40:41;8.30;;;5.03;;
11139;SDS011;5624;49.388;11.350;2024-01-30T00:43:07;8.47;;;4.63;;
11139;SDS011;5624;49.388;11.350;2024-01-30T00:45:32;5.37;;;4.57;;
11139;SDS011;5624;49.388;11.350;2024-01-30T00:47:58;6.60;;;4.27;;
11139;SDS011;5624;49.388;11.350;2024-01-30T00:50:24;8.87;;;4.53;;
11139;SDS011;5624;49.388;11.350;2024-01-30T00:52:49;7.00;;;4.53;;
11139;SDS011;5624;49.388;11.350;2024-01-30T00:55:15;8.83;;;4.83;;
11139;SDS011;5624;49.388;11.350;2024-01-30T00:57:40;6.23;;;4.20;;
11139;SDS011;5624;49.388;11.350;2024-01-30T01:00:06;7.73;;;4.90;;
11139;SDS011;5624;49.388;11.350;2024-01-30T01:02:34;6.80;;;4.40;;
11139;SDS011;5624;49.388;11.350;2024-01-30T01:04:59;6.07;;;4.43;;
11139;SDS011;5624;49.388;11.350;2024-01-30T01:07:25;7.63;;;5.10;;
11139;SDS011;5624;49.388;11.350;2024-01-30T01:09:50;5.30;;;4.17;;
11139;SDS011;5624;49.388;11.350;2024-01-30T01:12:16;6.57;;;4.27;;
11139;SDS011;5624;49.388;11.350;2024-01-30T01:14:42;6.67;;;4.47;;
11139;SDS011;5624;49.388;11.350;2024-01-30T01:17:07;6.23;;;4.07;;
11139;SDS011;5624;49.388;11.350;2024-01-30T01:19:33;6.93;;;4.20;;
11139;SDS011;5624;49.388;11.350;2024-01-30T01:21:58;6.50;;;3.80;;
11139;SDS011;5624;49.388;11.350;2024-01-30T01:24:24;4.50;;;3.67;;
11139;SDS011;5624;49.388;11.350;2024-01-30T01:26:49;4.17;;;3.70;;
11139;SDS011;5624;49.388;11.350;2024-01-30T01:29:15;5.63;;;3.97;;
11139;SDS011;5624;49.388;11.350;2024-01-30T01:31:41;5.37;;;3.87;;
11139;SDS011;5624;49.388;11.350;2024-01-30T01:34:12;6.03;;;3.73;;
11139;SDS011;5624;49.388;11.350;2024-01-30T01:36:38;5.47;;;4.20;;
11139;SDS011;5624;49.388;11.350;2024-01-30T01:39:04;5.50;;;3.90;;
11139;SDS011;5624;49.388;11.350;2024-01-30T01:41:30;6.30;;;4.00;;
11139;SDS011;5624;49.388;11.350;2024-01-30T01:43:59;5.73;;;4.20;;
11139;SDS011;5624;49.388;11.350;2024-01-30T01:46:30;6.70;;;4.23;;
11139;SDS011;5624;49.388;11.350;2024-01-30T01:48:57;5.70;;;4.40;;
11139;SDS011;5624;49.388;11.350;2024-01-30T01:51:23;7.20;;;4.23;;
11139;SDS011;5624;49.388;11.350;2024-01-30T01:53:52;5.53;;;3.80;;
11139;SDS011;5624;49.388;11.350;2024-01-30T01:56:18;5.30;;;4.00;;
11139;SDS011;5624;49.388;11.350;2024-01-30T01:58:44;7.40;;;4.17;;
11139;SDS011;5624;49.388;11.350;2024-01-30T02:01:11;5.87;;;4.00;;
11139;SDS011;5624;49.388;11.350;2024-01-30T02:03:38;6.70;;;4.03;;
11139;SDS011;5624;49.388;11.350;2024-01-30T02:06:04;6.37;;;4.13;;
11139;SDS011;5624;49.388;11.350;2024-01-30T02:08:30;7.67;;;4.30;;
11139;SDS011;5624;49.388;11.350;2024-01-30T02:10:56;7.90;;;4.40;;
11139;SDS011;5624;49.388;11.350;2024-01-30T02:13:21;5.27;;;3.97;;
11139;SDS011;5624;49.388;11.350;2024-01-30T02:15:50;7.40;;;4.60;;
11139;SDS011;5624;49.388;11.350;2024-01-30T02:18:16;6.87;;;4.53;;
11139;SDS011;5624;49.388;11.350;2024-01-30T02:20:42;7.50;;;4.73;;
11139;SDS011;5624;49.388;11.350;2024-01-30T02:23:09;7.57;;;4.73;;
11139;SDS011;5624;49.388;11.350;2024-01-30T02:25:38;6.50;;;4.73;;
11139;SDS011;5624;49.388;11.350;2024-01-30T02:28:09;7.90;;;5.00;;
11139;SDS011;5624;49.388;11.350;2024-01-30T02:30:36;7.07;;;4.73;;
11139;SDS011;5624;49.388;11.350;2024-01-30T02:33:02;7.23;;;5.20;;
11139;SDS011;5624;49.388;11.350;2024-01-30T02:35:28;6.80;;;4.67;;
11139;SDS011;5624;49.388;11.350;2024-01-30T02:37:53;6.27;;;4.63;;
11139;SDS011;5624;49.388;11.350;2024-01-30T02:40:19;7.80;;;4.70;;
11139;SDS011;5624;49.388;11.350;2024-01-30T02:42:44;6.47;;;4.90;;
11139;SDS011;5624;49.388;11.350;2024-01-30T02:45:10;8.43;;;5.10;;
11139;SDS011;5624;49.388;11.350;2024-01-30T02:47:36;8.33;;;5.57;;
11139;SDS011;5624;49.388;11.350;2024-01-30T02:50:02;9.43;;;5.23;;
11139;SDS011;5624;49.388;11.350;2024-01-30T02:52:28;7.43;;;4.93;;
11139;SDS011;5624;49.388;11.350;2024-01-30T02:54:53;8.20;;;5.43;;
11139;SDS011;5624;49.388;11.350;2024-01-30T02:57:19;7.00;;;5.60;;
11139;SDS011;5624;49.388;11.350;2024-01-30T02:59:44;8.23;;;5.97;;
11139;SDS011;5624;49.388;11.350;2024-01-30T03:02:10;6.80;;;5.30;;
11139;SDS011;5624;49.388;11.350;2024-01-30T03:04:35;6.87;;;5.60;;
11139;SDS011;5624;49.388;11.350;2024-01-30T03:07:00;8.37;;;5.47;;
11139;SDS011;5624;49.388;11.350;2024-01-30T03:09:26;8.93;;;5.97;;
11139;SDS011;5624;49.388;11.350;2024-01-30T03:11:51;8.07;;;5.73;;
11139;SDS011;5624;49.388;11.350;2024-01-30T03:14:17;6.50;;;5.40;;
11139;SDS011;5624;49.388;11.350;2024-01-30T03:16:43;7.63;;;5.63;;
11139;SDS011;5624;49.388;11.350;2024-01-30T03:19:08;10.33;;;6.60;;
11139;SDS011;5624;49.388;11.350;2024-01-30T03:21:34;8.37;;;5.40;;
11139;SDS011;5624;49.388;11.350;2024-01-30T03:24:00;10.77;;;5.93;;
11139;SDS011;5624;49.388;11.350;2024-01-30T03:26:25;8.67;;;6.10;;
11139;SDS011;5624;49.388;11.350;2024-01-30T03:28:51;9.37;;;6.10;;
11139;SDS011;5624;49.388;11.350;2024-01-30T03:31:16;8.17;;;6.50;;
11139;SDS011;5624;49.388;11.350;2024-01-30T03:33:42;8.10;;;6.43;;
11139;SDS011;5624;49.388;11.350;2024-01-30T03:36:08;8.93;;;6.93;;
11139;SDS011;5624;49.388;11.350;2024-01-30T03:38:34;10.77;;;7.40;;
11139;SDS011;5624;49.388;11.350;2024-01-30T03:41:00;9.10;;;6.97;;
11139;SDS011;5624;49.388;11.350;2024-01-30T03:43:26;9.53;;;7.13;;
11139;SDS011;5624;49.388;11.350;2024-01-30T03:45:51;10.90;;;7.97;;
11139;SDS011;5624;49.388;11.350;2024-01-30T03:48:17;9.73;;;7.80;;
11139;SDS011;5624;49.388;11.350;2024-01-30T03:50:43;12.20;;;8.10;;
11139;SDS011;5624;49.388;11.350;2024-01-30T03:53:08;12.43;;;9.13;;
11139;SDS011;5624;49.388;11.350;2024-01-30T03:55:34;10.30;;;8.83;;
11139;SDS011;5624;49.388;11.350;2024-01-30T03:57:59;11.13;;;8.87;;
11139;SDS011;5624;49.388;11.350;2024-01-30T04:00:26;12.00;;;9.27;;
11139;SDS011;5624;49.388;11.350;2024-01-30T04:02:51;11.80;;;9.80;;
11139;SDS011;5624;49.388;11.350;2024-01-30T04:05:17;12.57;;;9.60;;
11139;SDS011;5624;49.388;11.350;2024-01-30T04:07:42;13.37;;;9.70;;
11139;SDS011;5624;49.388;11.350;2024-01-30T04:10:09;14.07;;;9.33;;
11139;SDS011;5624;49.388;11.350;2024-01-30T04:12:35;14.10;;;10.10;;
11139;SDS011;5624;49.388;11.350;2024-01-30T04:15:01;13.93;;;10.40;;
11139;SDS011;5624;49.388;11.350;2024-01-30T04:17:27;13.03;;;10.47;;
11139;SDS011;5624;49.388;11.350;2024-01-30T04:19:54;12.23;;;10.20;;
11139;SDS011;5624;49.388;11.350;2024-01-30T04:22:20;12.17;;;10.40;;
11139;SDS011;5624;49.388;11.350;2024-01-30T04:24:45;12.50;;;9.53;;
11139;SDS011;5624;49.388;11.350;2024-01-30T04:27:11;12.57;;;9.67;;
11139;SDS011;5624;49.388;11.350;2024-01-30T04:29:37;12.00;;;9.97;;
11139;SDS011;5624;49.388;11.350;2024-01-30T04:32:02;12.93;;;9.90;;
11139;SDS011;5624;49.388;11.350;2024-01-30T04:34:28;11.57;;;9.63;;
11139;SDS011;5624;49.388;11.350;2024-01-30T04:36:54;12.17;;;10.20;;
11139;SDS011;5624;49.388;11.350;2024-01-30T04:39:19;12.40;;;9.33;;
11139;SDS011;5624;49.388;11.350;2024-01-30T04:41:45;15.47;;;10.50;;
11139;SDS011;5624;49.388;11.350;2024-01-30T04:44:10;11.73;;;9.60;;
11139;SDS011;5624;49.388;11.350;2024-01-30T04:46:36;13.23;;;10.10;;
11139;SDS011;5624;49.388;11.350;2024-01-30T04:49:02;17.93;;;10.63;;
11139;SDS011;5624;49.388;11.350;2024-01-30T04:51:28;15.60;;;10.93;;
11139;SDS011;5624;49.388;11.350;2024-01-30T04:53:54;14.83;;;11.27;;
11139;SDS011;5624;49.388;11.350;2024-01-30T04:56:19;15.37;;;11.17;;
11139;SDS011;5624;49.388;11.350;2024-01-30T04:58:45;15.07;;;11.47;;
11139;SDS011;5624;49.388;11.350;2024-01-30T05:01:14;13.43;;;10.90;;
11139;SDS011;5624;49.388;11.350;2024-01-30T05:03:43;16.83;;;11.07;;
11139;SDS011;5624;49.388;11.350;2024-01-30T05:06:08;15.97;;;11.83;;
11139;SDS011;5624;49.388;11.350;2024-01-30T05:08:34;15.73;;;11.90;;
11139;SDS011;5624;49.388;11.350;2024-01-30T05:11:03;15.30;;;13.17;;
11139;SDS011;5624;49.388;11.350;2024-01-30T05:13:32;16.07;;;12.63;;
11139;SDS011;5624;49.388;11.350;2024-01-30T05:15:58;14.80;;;12.50;;
11139;SDS011;5624;49.388;11.350;2024-01-30T05:18:26;17.47;;;12.90;;
11139;SDS011;5624;49.388;11.350;2024-01-30T05:20:52;17.20;;;13.07;;
11139;SDS011;5624;49.388;11.350;2024-01-30T05:23:17;16.37;;;13.07;;
11139;SDS011;5624;49.388;11.350;2024-01-30T05:25:43;17.33;;;13.20;;
11139;SDS011;5624;49.388;11.350;2024-01-30T05:28:08;16.07;;;13.67;;
11139;SDS011;5624;49.388;11.350;2024-01-30T05:30:34;16.53;;;12.63;;
11139;SDS011;5624;49.388;11.350;2024-01-30T05:32:59;21.37;;;15.20;;
11139;SDS011;5624;49.388;11.350;2024-01-30T05:35:25;19.90;;;14.73;;
11139;SDS011;5624;49.388;11.350;2024-01-30T05:37:50;20.47;;;16.67;;
11139;SDS011;5624;49.388;11.350;2024-01-30T05:40:16;22.27;;;17.90;;
11139;SDS011;5624;49.388;11.350;2024-01-30T05:42:42;22.10;;;16.63;;
11139;SDS011;5624;49.388;11.350;2024-01-30T05:45:07;17.40;;;15.23;;
11139;SDS011;5624;49.388;11.350;2024-01-30T05:47:34;22.07;;;16.57;;
11139;SDS011;5624;49.388;11.350;2024-01-30T05:50:00;17.20;;;13.93;;
11139;SDS011;5624;49.388;11.350;2024-01-30T05:52:25;17.00;;;14.03;;
11139;SDS011;5624;49.388;11.350;2024-01-30T05:54:51;17.67;;;14.47;;
11139;SDS011;5624;49.388;11.350;2024-01-30T05:57:16;18.10;;;14.80;;
11139;SDS011;5624;49.388;11.350;2024-01-30T05:59:42;18.20;;;14.50;;
11139;SDS011;5624;49.388;11.350;2024-01-30T06:02:10;18.43;;;14.80;;
11139;SDS011;5624;49.388;11.350;2024-01-30T06:04:36;20.73;;;16.97;;
11139;SDS011;5624;49.388;11.350;2024-01-30T06:07:01;20.27;;;15.60;;
11139;SDS011;5624;49.388;11.350;2024-01-30T06:09:27;21.77;;;15.47;;
11139;SDS011;5624;49.388;11.350;2024-01-30T06:11:54;19.03;;;15.20;;
11139;SDS011;5624;49.388;11.350;2024-01-30T06:14:19;30.33;;;22.47;;
11139;SDS011;5624;49.388;11.350;2024-01-30T06:16:45;26.90;;;18.23;;
11139;SDS011;5624;49.388;11.350;2024-01-30T06:19:10;35.73;;;22.17;;
11139;SDS011;5624;49.388;11.350;2024-01-30T06:21:36;29.93;;;21.87;;
11139;SDS011;5624;49.388;11.350;2024-01-30T06:24:03;27.37;;;21.40;;
11139;SDS011;5624;49.388;11.350;2024-01-30T06:26:29;28.27;;;20.37;;
11139;SDS011;5624;49.388;11.350;2024-01-30T06:28:54;33.03;;;23.70;;
11139;SDS011;5624;49.388;11.350;2024-01-30T06:31:21;27.07;;;21.00;;
11139;SDS011;5624;49.388;11.350;2024-01-30T06:33:47;33.10;;;25.17;;
11139;SDS011;5624;49.388;11.350;2024-01-30T06:36:13;25.37;;;19.97;;
11139;SDS011;5624;49.388;11.350;2024-01-30T06:38:38;24.07;;;20.47;;
11139;SDS011;5624;49.388;11.350;2024-01-30T06:41:04;24.20;;;20.13;;
11139;SDS011;5624;49.388;11.350;2024-01-30T06:43:30;23.83;;;17.60;;
11139;SDS011;5624;49.388;11.350;2024-01-30T06:45:55;26.50;;;21.20;;
11139;SDS011;5624;49.388;11.350;2024-01-30T06:48:25;25.83;;;20.80;;
11139;SDS011;5624;49.388;11.350;2024-01-30T06:50:53;31.13;;;22.53;;
11139;SDS011;5624;49.388;11.350;2024-01-30T06:53:20;30.17;;;23.17;;
11139;SDS011;5624;49.388;11.350;2024-01-30T06:55:45;30.40;;;23.57;;
11139;SDS011;5624;49.388;11.350;2024-01-30T06:58:11;29.53;;;23.17;;
11139;SDS011;5624;49.388;11.350;2024-01-30T07:00:37;33.33;;;23.83;;
11139;SDS011;5624;49.388;11.350;2024-01-30T07:03:03;25.73;;;20.53;;
11139;SDS011;5624;49.388;11.350;2024-01-30T07:05:29;28.97;;;23.63;;
11139;SDS011;5624;49.388;11.350;2024-01-30T07:07:54;34.77;;;24.73;;
11139;SDS011;5624;49.388;11.350;2024-01-30T07:10:20;31.03;;;23.97;;
11139;SDS011;5624;49.388;11.350;2024-01-30T07:12:45;25.33;;;20.73;;
11139;SDS011;5624;49.388;11.350;2024-01-30T07:15:11;26.47;;;20.57;;
11139;SDS011;5624;49.388;11.350;2024-01-30T07:17:38;24.80;;;19.50;;
11139;SDS011;5624;49.388;11.350;2024-01-30T07:20:04;24.27;;;19.40;;
11139;SDS011;5624;49.388;11.350;2024-01-30T07:22:30;24.80;;;18.47;;
11139;SDS011;5624;49.388;11.350;2024-01-30T07:24:56;24.03;;;19.53;;
11139;SDS011;5624;49.388;11.350;2024-01-30T07:27:22;23.13;;;18.87;;
11139;SDS011;5624;49.388;11.350;2024-01-30T07:29:47;24.70;;;19.03;;
11139;SDS011;5624;49.388;11.350;2024-01-30T07:32:13;22.03;;;19.03;;
11139;SDS011;5624;49.388;11.350;2024-01-30T07:34:39;22.60;;;19.03;;
11139;SDS011;5624;49.388;11.350;2024-01-30T07:37:05;20.53;;;17.60;;
11139;SDS011;5624;49.388;11.350;2024-01-30T07:39:33;22.53;;;18.57;;
11139;SDS011;5624;49.388;11.350;2024-01-30T07:41:59;23.23;;;17.03;;
11139;SDS011;5624;49.388;11.350;2024-01-30T07:44:24;25.77;;;20.03;;
11139;SDS011;5624;49.388;11.350;2024-01-30T07:46:50;22.93;;;19.47;;
11139;SDS011;5624;49.388;11.350;2024-01-30T07:49:15;22.43;;;19.30;;
11139;SDS011;5624;49.388;11.350;2024-01-30T07:51:41;21.83;;;19.37;;
11139;SDS011;5624;49.388;11.350;2024-01-30T07:54:06;24.50;;;19.93;;
11139;SDS011;5624;49.388;11.350;2024-01-30T07:56:32;20.63;;;18.03;;
11139;SDS011;5624;49.388;11.350;2024-01-30T07:58:58;22.80;;;20.07;;
11139;SDS011;5624;49.388;11.350;2024-01-30T08:01:23;23.20;;;20.03;;
11139;SDS011;5624;49.388;11.350;2024-01-30T08:03:49;26.90;;;19.93;;
11139;SDS011;5624;49.388;11.350;2024-01-30T08:06:14;23.77;;;19.50;;
11139;SDS011;5624;49.388;11.350;2024-01-30T08:08:40;24.87;;;19.43;;
11139;SDS011;5624;49.388;11.350;2024-01-30T08:11:06;23.27;;;20.70;;
11139;SDS011;5624;49.388;11.350;2024-01-30T08:13:32;23.20;;;20.03;;
11139;SDS011;5624;49.388;11.350;2024-01-30T08:15:58;24.27;;;19.93;;
11139;SDS011;5624;49.388;11.350;2024-01-30T08:18:23;23.23;;;19.53;;
11139;SDS011;5624;49.388;11.350;2024-01-30T08:20:49;23.47;;;20.97;;
11139;SDS011;5624;49.388;11.350;2024-01-30T08:23:14;21.73;;;18.73;;
11139;SDS011;5624;49.388;11.350;2024-01-30T08:25:40;20.67;;;18.57;;
11139;SDS011;5624;49.388;11.350;2024-01-30T08:28:05;22.30;;;19.40;;
11139;SDS011;5624;49.388;11.350;2024-01-30T08:30:32;22.47;;;19.53;;
11139;SDS011;5624;49.388;11.350;2024-01-30T08:32:57;21.23;;;19.03;;
11139;SDS011;5624;49.388;11.350;2024-01-30T08:35:23;22.27;;;19.67;;
11139;SDS011;5624;49.388;11.350;2024-01-30T08:37:48;21.87;;;18.77;;
11139;SDS011;5624;49.388;11.350;2024-01-30T08:40:14;22.70;;;19.30;;
11139;SDS011;5624;49.388;11.350;2024-01-30T08:42:39;22.23;;;19.33;;
11139;SDS011;5624;49.388;11.350;2024-01-30T08:45:05;20.83;;;18.63;;
11139;SDS011;5624;49.388;11.350;2024-01-30T08:47:31;22.53;;;18.90;;
11139;SDS011;5624;49.388;11.350;2024-01-30T08:49:58;23.03;;;19.53;;
11139;SDS011;5624;49.388;11.350;2024-01-30T08:52:24;22.70;;;19.90;;
11139;SDS011;5624;49.388;11.350;2024-01-30T08:54:49;21.17;;;18.70;;
11139;SDS011;5624;49.388;11.350;2024-01-30T08:57:15;23.27;;;19.57;;
11139;SDS011;5624;49.388;11.350;2024-01-30T08:59:40;25.47;;;21.10;;
11139;SDS011;5624;49.388;11.350;2024-01-30T09:02:09;22.57;;;19.40;;
11139;SDS011;5624;49.388;11.350;2024-01-30T09:04:35;22.73;;;18.80;;
11139;SDS011;5624;49.388;11.350;2024-01-30T09:07:00;21.13;;;18.77;;
11139;SDS011;5624;49.388;11.350;2024-01-30T09:09:26;22.33;;;19.27;;
11139;SDS011;5624;49.388;11.350;2024-01-30T09:11:51;25.03;;;20.23;;
11139;SDS011;5624;49.388;11.350;2024-01-30T09:14:17;23.10;;;19.00;;
11139;SDS011;5624;49.388;11.350;2024-01-30T09:16:42;21.73;;;19.47;;
11139;SDS011;5624;49.388;11.350;2024-01-30T09:19:08;25.87;;;19.00;;
11139;SDS011;5624;49.388;11.350;2024-01-30T09:21:33;23.63;;;19.67;;
11139;SDS011;5624;49.388;11.350;2024-01-30T09:24:02;23.33;;;19.07;;
11139;SDS011;5624;49.388;11.350;2024-01-30T09:26:31;24.43;;;19.03;;
11139;SDS011;5624;49.388;11.350;2024-01-30T09:28:56;23.03;;;19.93;;
11139;SDS011;5624;49.388;11.350;2024-01-30T09:31:22;26.87;;;22.40;;
11139;SDS011;5624;49.388;11.350;2024-01-30T09:33:48;24.37;;;21.80;;
11139;SDS011;5624;49.388;11.350;2024-01-30T09:36:14;24.60;;;19.47;;
11139;SDS011;5624;49.388;11.350;2024-01-30T09:38:44;23.00;;;20.50;;
11139;SDS011;5624;49.388;11.350;2024-01-30T09:41:10;26.70;;;21.70;;
11139;SDS011;5624;49.388;11.350;2024-01-30T09:43:37;24.80;;;20.07;;
11139;SDS011;5624;49.388;11.350;2024-01-30T09:46:08;22.63;;;20.20;;
11139;SDS011;5624;49.388;11.350;2024-01-30T09:48:38;29.60;;;23.93;;
11139;SDS011;5624;49.388;11.350;2024-01-30T09:51:06;23.30;;;19.80;;
11139;SDS011;5624;49.388;11.350;2024-01-30T09:53:33;23.47;;;20.63;;
11139;SDS011;5624;49.388;11.350;2024-01-30T09:55:58;23.50;;;19.77;;
11139;SDS011;5624;49.388;11.350;2024-01-30T09:58:25;23.70;;;19.97;;
11139;SDS011;5624;49.388;11.350;2024-01-30T10:00:51;22.83;;;20.03;;
11139;SDS011;5624;49.388;11.350;2024-01-30T10:03:18;23.40;;;21.00;;
11139;SDS011;5624;49.388;11.350;2024-01-30T10:05:44;23.97;;;19.43;;
11139;SDS011;5624;49.388;11.350;2024-01-30T10:08:17;21.30;;;19.03;;
11139;SDS011;5624;49.388;11.350;2024-01-30T10:10:46;22.90;;;19.00;;
11139;SDS011;5624;49.388;11.350;2024-01-30T10:13:12;24.80;;;19.10;;
11139;SDS011;5624;49.388;11.350;2024-01-30T10:15:38;22.77;;;19.23;;
11139;SDS011;5624;49.388;11.350;2024-01-30T10:18:05;21.77;;;19.30;;
11139;SDS011;5624;49.388;11.350;2024-01-30T10:20:32;21.40;;;18.33;;
11139;SDS011;5624;49.388;11.350;2024-01-30T10:22:57;20.33;;;18.13;;
11139;SDS011;5624;49.388;11.350;2024-01-30T10:25:24;20.23;;;17.53;;
11139;SDS011;5624;49.388;11.350;2024-01-30T10:27:54;19.83;;;17.00;;
11139;SDS011;5624;49.388;11.350;2024-01-30T10:30:23;21.90;;;16.03;;
11139;SDS011;5624;49.388;11.350;2024-01-30T10:32:49;21.70;;;13.67;;
11139;SDS011;5624;49.388;11.350;2024-01-30T10:35:15;21.63;;;15.73;;
11139;SDS011;5624;49.388;11.350;2024-01-30T10:37:43;17.40;;;12.93;;
11139;SDS011;5624;49.388;11.350;2024-01-30T10:40:09;17.07;;;12.13;;
11139;SDS011;5624;49.388;11.350;2024-01-30T10:42:37;20.07;;;14.47;;
11139;SDS011;5624;49.388;11.350;2024-01-30T10:45:11;22.13;;;15.03;;
11139;SDS011;5624;49.388;11.350;2024-01-30T10:47:39;23.13;;;14.93;;
11139;SDS011;5624;49.388;11.350;2024-01-30T10:50:06;19.73;;;14.23;;
11139;SDS011;5624;49.388;11.350;2024-01-30T10:52:33;18.57;;;13.40;;
11139;SDS011;5624;49.388;11.350;2024-01-30T10:54:59;22.40;;;16.83;;
11139;SDS011;5624;49.388;11.350;2024-01-30T10:57:26;20.27;;;16.83;;
11139;SDS011;5624;49.388;11.350;2024-01-30T10:59:52;20.23;;;16.33;;
11139;SDS011;5624;49.388;11.350;2024-01-30T11:02:21;21.47;;;13.07;;
11139;SDS011;5624;49.388;11.350;2024-01-30T11:04:49;20.40;;;14.07;;
11139;SDS011;5624;49.388;11.350;2024-01-30T11:07:15;18.97;;;12.83;;
11139;SDS011;5624;49.388;11.350;2024-01-30T11:09:51;18.00;;;15.27;;
11139;SDS011;5624;49.388;11.350;2024-01-30T11:12:21;17.37;;;12.37;;
11139;SDS011;5624;49.388;11.350;2024-01-30T11:14:48;20.03;;;11.97;;
11139;SDS011;5624;49.388;11.350;2024-01-30T11:17:15;18.60;;;13.90;;
11139;SDS011;5624;49.388;11.350;2024-01-30T11:19:41;18.53;;;13.13;;
11139;SDS011;5624;49.388;11.350;2024-01-30T11:22:07;18.63;;;12.70;;
11139;SDS011;5624;49.388;11.350;2024-01-30T11:24:39;18.70;;;12.73;;
11139;SDS011;5624;49.388;11.350;2024-01-30T11:27:08;21.07;;;13.20;;
11139;SDS011;5624;49.388;11.350;2024-01-30T11:29:37;18.73;;;16.00;;
11139;SDS011;5624;49.388;11.350;2024-01-30T11:32:05;20.03;;;17.10;;
11139;SDS011;5624;49.388;11.350;2024-01-30T11:34:30;20.00;;;15.10;;
11139;SDS011;5624;49.388;11.350;2024-01-30T11:36:59;21.37;;;16.37;;
11139;SDS011;5624;49.388;11.350;2024-01-30T11:39:31;18.20;;;16.07;;
11139;SDS011;5624;49.388;11.350;2024-01-30T11:41:57;20.30;;;13.50;;
11139;SDS011;5624;49.388;11.350;2024-01-30T11:44:24;18.10;;;13.47;;
11139;SDS011;5624;49.388;11.350;2024-01-30T11:46:51;18.27;;;12.87;;
11139;SDS011;5624;49.388;11.350;2024-01-30T11:49:17;17.20;;;12.07;;
11139;SDS011;5624;49.388;11.350;2024-01-30T11:51:45;17.00;;;12.27;;
11139;SDS011;5624;49.388;11.350;2024-01-30T11:54:11;17.00;;;14.13;;
11139;SDS011;5624;49.388;11.350;2024-01-30T11:56:37;22.90;;;16.87;;
11139;SDS011;5624;49.388;11.350;2024-01-30T11:59:03;19.00;;;16.30;;
11139;SDS011;5624;49.388;11.350;2024-01-30T12:01:29;20.50;;;15.93;;
11139;SDS011;5624;49.388;11.350;2024-01-30T12:03:57;18.57;;;12.87;;
11139;SDS011;5624;49.388;11.350;2024-01-30T12:06:23;21.20;;;13.83;;
11139;SDS011;5624;49.388;11.350;2024-01-30T12:08:58;19.70;;;14.50;;
11139;SDS011;5624;49.388;11.350;2024-01-30T12:11:25;19.87;;;14.50;;
11139;SDS011;5624;49.388;11.350;2024-01-30T12:13:51;21.67;;;13.90;;
11139;SDS011;5624;49.388;11.350;2024-01-30T12:16:18;19.33;;;14.20;;
11139;SDS011;5624;49.388;11.350;2024-01-30T12:18:43;20.93;;;18.10;;
11139;SDS011;5624;49.388;11.350;2024-01-30T12:21:09;22.97;;;18.10;;
11139;SDS011;5624;49.388;11.350;2024-01-30T12:23:34;23.27;;;17.50;;
11139;SDS011;5624;49.388;11.350;2024-01-30T12:26:00;25.33;;;18.47;;
11139;SDS011;5624;49.388;11.350;2024-01-30T12:28:28;22.10;;;18.10;;
11139;SDS011;5624;49.388;11.350;2024-01-30T12:31:01;24.03;;;18.27;;
11139;SDS011;5624;49.388;11.350;2024-01-30T12:33:27;23.60;;;18.00;;
11139;SDS011;5624;49.388;11.350;2024-01-30T12:35:53;25.43;;;17.60;;
11139;SDS011;5624;49.388;11.350;2024-01-30T12:38:19;28.23;;;16.43;;
11139;SDS011;5624;49.388;11.350;2024-01-30T12:40:45;21.40;;;15.67;;
11139;SDS011;5624;49.388;11.350;2024-01-30T12:43:11;25.47;;;17.03;;
11139;SDS011;5624;49.388;11.350;2024-01-30T12:45:38;20.33;;;17.07;;
11139;SDS011;5624;49.388;11.350;2024-01-30T12:48:04;25.97;;;19.03;;
11139;SDS011;5624;49.388;11.350;2024-01-30T12:50:30;23.50;;;18.40;;
11139;SDS011;5624;49.388;11.350;2024-01-30T12:52:56;22.87;;;16.30;;
11139;SDS011;5624;49.388;11.350;2024-01-30T12:55:21;21.13;;;16.90;;
11139;SDS011;5624;49.388;11.350;2024-01-30T12:57:49;25.10;;;18.53;;
11139;SDS011;5624;49.388;11.350;2024-01-30T13:00:15;20.07;;;17.37;;
11139;SDS011;5624;49.388;11.350;2024-01-30T13:02:42;20.67;;;16.63;;
11139;SDS011;5624;49.388;11.350;2024-01-30T13:05:09;20.40;;;15.50;;
11139;SDS011;5624;49.388;11.350;2024-01-30T13:07:35;22.37;;;17.70;;
11139;SDS011;5624;49.388;11.350;2024-01-30T13:10:01;21.63;;;17.33;;
11139;SDS011;5624;49.388;11.350;2024-01-30T13:12:28;22.93;;;17.10;;
11139;SDS011;5624;49.388;11.350;2024-01-30T13:14:54;19.43;;;13.97;;
11139;SDS011;5624;49.388;11.350;2024-01-30T13:17:20;22.03;;;13.83;;
11139;SDS011;5624;49.388;11.350;2024-01-30T13:19:46;20.57;;;14.87;;
11139;SDS011;5624;49.388;11.350;2024-01-30T13:22:13;20.17;;;13.77;;
11139;SDS011;5624;49.388;11.350;2024-01-30T13:24:39;21.90;;;14.97;;
11139;SDS011;5624;49.388;11.350;2024-01-30T13:27:04;21.77;;;14.60;;
11139;SDS011;5624;49.388;11.350;2024-01-30T13:29:31;23.57;;;15.30;;
11139;SDS011;5624;49.388;11.350;2024-01-30T13:31:57;20.33;;;14.87;;
11139;SDS011;5624;49.388;11.350;2024-01-30T13:34:22;20.53;;;16.97;;
11139;SDS011;5624;49.388;11.350;2024-01-30T13:36:48;21.17;;;16.27;;
11139;SDS011;5624;49.388;11.350;2024-01-30T13:39:14;22.30;;;17.27;;
11139;SDS011;5624;49.388;11.350;2024-01-30T13:41:41;18.03;;;13.53;;
11139;SDS011;5624;49.388;11.350;2024-01-30T13:44:07;18.63;;;12.97;;
11139;SDS011;5624;49.388;11.350;2024-01-30T13:46:34;21.77;;;17.03;;
11139;SDS011;5624;49.388;11.350;2024-01-30T13:49:00;16.67;;;12.23;;
11139;SDS011;5624;49.388;11.350;2024-01-30T13:51:26;22.23;;;12.90;;
11139;SDS011;5624;49.388;11.350;2024-01-30T13:53:51;18.80;;;13.93;;
11139;SDS011;5624;49.388;11.350;2024-01-30T13:56:17;18.67;;;13.30;;
11139;SDS011;5624;49.388;11.350;2024-01-30T13:58:44;20.17;;;14.97;;
11139;SDS011;5624;49.388;11.350;2024-01-30T14:01:09;20.50;;;12.57;;
11139;SDS011;5624;49.388;11.350;2024-01-30T14:03:35;18.57;;;12.37;;
11139;SDS011;5624;49.388;11.350;2024-01-30T14:06:00;20.30;;;13.03;;
11139;SDS011;5624;49.388;11.350;2024-01-30T14:08:26;18.87;;;11.63;;
11139;SDS011;5624;49.388;11.350;2024-01-30T14:10:53;20.30;;;15.03;;
11139;SDS011;5624;49.388;11.350;2024-01-30T14:13:21;17.67;;;13.60;;
11139;SDS011;5624;49.388;11.350;2024-01-30T14:15:47;17.77;;;11.23;;
11139;SDS011;5624;49.388;11.350;2024-01-30T14:18:14;15.97;;;11.93;;
11139;SDS011;5624;49.388;11.350;2024-01-30T14:20:40;17.03;;;12.13;;
11139;SDS011;5624;49.388;11.350;2024-01-30T14:23:06;19.20;;;12.57;;